createdAt,value
2023-04-04T00:01:31.026Z,98646.69
2023-04-04T00:04:01.962Z,98647.63
2023-04-04T00:06:31.017Z,98642.88
2023-04-04T00:09:00.290Z,98644.50
2023-04-04T00:11:29.313Z,98644.50
2023-04-04T00:13:58.340Z,98644.16
2023-04-04T00:16:27.517Z,98648.72
2023-04-04T00:18:56.499Z,98647.34
2023-04-04T00:21:27.582Z,98644.97
2023-04-04T00:23:57.134Z,98653.56
2023-04-04T00:26:26.361Z,98644.47
2023-04-04T00:28:56.265Z,98651.06
2023-04-04T00:31:25.358Z,98649.53
2023-04-04T00:33:54.378Z,98646.19
2023-04-04T00:36:23.464Z,98631.13
2023-04-04T00:38:53.810Z,98635.94
2023-04-04T00:41:22.840Z,98643.66
2023-04-04T00:43:51.841Z,98645.69
2023-04-04T00:46:21.850Z,98638.31
2023-04-04T00:48:51.598Z,98642.44
2023-04-04T00:51:20.730Z,98639.66
2023-04-04T00:53:51.871Z,98632.78
2023-04-04T00:56:23.541Z,98634.16
2023-04-04T00:58:53.000Z,98627.69
2023-04-04T01:01:25.772Z,98626.38
2023-04-04T01:03:55.002Z,98632.13
2023-04-04T01:06:24.022Z,98628.06
2023-04-04T01:08:55.312Z,98614.50
2023-04-04T01:11:27.154Z,98625.22
2023-04-04T01:13:56.561Z,98622.22
2023-04-04T01:16:25.982Z,98618.63
2023-04-04T01:18:56.235Z,98607.09
2023-04-04T01:21:26.516Z,98603.31
2023-04-04T01:24:01.915Z,98609.88
2023-04-04T01:26:42.572Z,98615.31
2023-04-04T01:29:12.389Z,98619.22
2023-04-04T01:31:49.525Z,98612.06
2023-04-04T01:34:25.993Z,98620.03
2023-04-04T01:37:04.243Z,98610.88
2023-04-04T01:39:43.158Z,98608.84
2023-04-04T01:42:16.964Z,98617.59
2023-04-04T01:44:48.898Z,98610.47
2023-04-04T01:47:18.166Z,98619.13
2023-04-04T01:49:47.331Z,98608.88
2023-04-04T01:52:17.231Z,98603.09
2023-04-04T01:54:46.196Z,98610.81
2023-04-04T01:57:16.834Z,98607.94
2023-04-04T01:59:46.417Z,98615.66
2023-04-04T02:02:15.694Z,98614.50
2023-04-04T02:04:44.751Z,98601.03
2023-04-04T02:07:14.275Z,98596.63
2023-04-04T02:09:43.545Z,98602.16
2023-04-04T02:12:12.781Z,98597.78
2023-04-04T02:14:43.218Z,98595.81
2023-04-04T02:17:12.506Z,98584.88
2023-04-04T02:19:41.861Z,98584.41
2023-04-04T02:22:10.901Z,98584.88
2023-04-04T02:24:40.021Z,98587.63
2023-04-04T02:27:10.462Z,98569.19
2023-04-04T02:29:39.493Z,98573.78
2023-04-04T02:32:09.850Z,98563.19
2023-04-04T02:34:38.935Z,98560.53
2023-04-04T02:37:08.917Z,98566.75
2023-04-04T02:39:37.920Z,98569.38
2023-04-04T02:42:07.289Z,98557.66
2023-04-04T02:44:36.400Z,98555.09
2023-04-04T02:47:07.873Z,98547.22
2023-04-04T02:49:38.367Z,98546.53
2023-04-04T02:52:08.365Z,98552.06
2023-04-04T02:54:41.725Z,98543.00
2023-04-04T02:57:12.713Z,98546.00
2023-04-04T02:59:41.893Z,98538.50
2023-04-04T03:02:11.023Z,98542.75
2023-04-04T03:04:41.491Z,98529.81
2023-04-04T03:07:11.372Z,98519.13
2023-04-04T03:09:40.515Z,98510.91
2023-04-04T03:12:09.611Z,98521.41
2023-04-04T03:14:38.666Z,98525.31
2023-04-04T03:17:09.435Z,98521.31
2023-04-04T03:19:38.679Z,98520.69
2023-04-04T03:22:09.618Z,98518.84
2023-04-04T03:24:39.199Z,98524.69
2023-04-04T03:27:08.992Z,98521.22
2023-04-04T03:29:38.095Z,98522.22
2023-04-04T03:32:07.411Z,98525.13
2023-04-04T03:34:36.709Z,98522.09
2023-04-04T03:37:05.992Z,98515.16
2023-04-04T03:39:36.446Z,98525.81
2023-04-04T03:42:06.146Z,98518.25
2023-04-04T03:44:36.635Z,98519.63
2023-04-04T03:47:06.531Z,98520.69
2023-04-04T03:49:36.637Z,98515.31
2023-04-04T03:52:06.841Z,98512.69
2023-04-04T03:54:37.242Z,98518.13
2023-04-04T03:57:07.655Z,98508.69
2023-04-04T03:59:37.338Z,98516.72
2023-04-04T04:02:06.959Z,98515.25
2023-04-04T04:04:36.222Z,98515.94
2023-04-04T04:07:05.265Z,98515.06
2023-04-04T04:09:34.289Z,98516.41
2023-04-04T04:12:04.996Z,98512.84
2023-04-04T04:14:34.066Z,98516.25
2023-04-04T04:17:04.719Z,98514.97
2023-04-04T04:19:33.736Z,98517.38
2023-04-04T04:22:02.760Z,98517.56
2023-04-04T04:24:32.099Z,98518.50
2023-04-04T04:27:02.091Z,98520.13
2023-04-04T04:29:32.969Z,98516.25
2023-04-04T04:32:02.362Z,98519.31
2023-04-04T04:34:36.253Z,98524.19
2023-04-04T04:37:06.250Z,98534.38
2023-04-04T04:39:44.450Z,98527.09
2023-04-04T04:42:26.195Z,98528.41
2023-04-04T04:45:00.606Z,98531.31
2023-04-04T04:47:32.788Z,98529.66
2023-04-04T04:50:05.550Z,98536.31
2023-04-04T04:52:41.587Z,98531.97
2023-04-04T04:55:11.595Z,98531.16
2023-04-04T04:57:47.624Z,98538.56
2023-04-04T05:00:24.532Z,98539.25
2023-04-04T05:02:56.807Z,98547.16
2023-04-04T05:05:37.981Z,98546.69
2023-04-04T05:08:11.545Z,98553.78
2023-04-04T05:10:48.569Z,98554.28
2023-04-04T05:13:18.571Z,98557.16
2023-04-04T05:15:50.576Z,98551.25
2023-04-04T05:18:19.872Z,98560.72
2023-04-04T05:20:54.067Z,98555.31
2023-04-04T05:23:25.298Z,98561.69
2023-04-04T05:25:55.167Z,98561.50
2023-04-04T05:28:26.723Z,98567.03
2023-04-04T05:31:01.335Z,98561.06
2023-04-04T05:33:33.154Z,98567.16
2023-04-04T05:36:14.863Z,98564.88
2023-04-04T05:38:50.066Z,98568.47
2023-04-04T05:41:22.142Z,98569.13
2023-04-04T05:43:53.111Z,98565.47
2023-04-04T05:46:27.216Z,98565.59
2023-04-04T05:48:56.976Z,98579.31
2023-04-04T05:51:27.077Z,98558.34
2023-04-04T05:54:09.019Z,98567.81
2023-04-04T05:56:39.874Z,98567.22
2023-04-04T05:59:16.589Z,98568.91
2023-04-04T06:01:57.629Z,98556.56
2023-04-04T06:04:27.056Z,98565.75
2023-04-04T06:06:58.108Z,98561.25
2023-04-04T06:09:27.883Z,98570.66
2023-04-04T06:11:57.090Z,98579.69
2023-04-04T06:14:26.182Z,98575.34
2023-04-04T06:16:56.707Z,98572.53
2023-04-04T06:19:26.091Z,98579.44
2023-04-04T06:21:55.379Z,98586.34
2023-04-04T06:24:24.983Z,98567.09
2023-04-04T06:26:54.135Z,98572.31
2023-04-04T06:29:26.835Z,98574.00
2023-04-04T06:31:59.877Z,98575.16
2023-04-04T06:34:41.575Z,98574.78
2023-04-04T06:37:11.794Z,98576.63
2023-04-04T06:39:49.834Z,98572.25
2023-04-04T06:42:26.053Z,98572.50
2023-04-04T06:44:55.903Z,98577.13
2023-04-04T06:47:26.333Z,98575.69
2023-04-04T06:49:56.066Z,98571.97
2023-04-04T06:52:26.724Z,98578.66
2023-04-04T06:54:56.602Z,98577.75
2023-04-04T06:57:25.758Z,98570.31
2023-04-04T06:59:54.788Z,98576.31
2023-04-04T07:02:25.222Z,98573.75
2023-04-04T07:04:54.317Z,98571.34
2023-04-04T07:07:23.374Z,98571.34
2023-04-04T07:09:52.492Z,98567.59
2023-04-04T07:12:21.873Z,98559.19
2023-04-04T07:14:51.688Z,98563.50
2023-04-04T07:17:24.623Z,98568.63
2023-04-04T07:19:55.601Z,98565.19
2023-04-04T07:22:24.741Z,98572.72
2023-04-04T07:24:54.708Z,98573.06
2023-04-04T07:27:23.721Z,98572.59
2023-04-04T07:29:52.979Z,98580.50
2023-04-04T07:32:24.484Z,98577.44
2023-04-04T07:34:55.504Z,98583.28
2023-04-04T07:37:26.609Z,98583.41
2023-04-04T07:39:55.860Z,98586.47
2023-04-04T07:42:25.386Z,98588.97
2023-04-04T07:44:54.566Z,98581.78
2023-04-04T07:47:23.823Z,98582.88
2023-04-04T07:49:54.302Z,98581.44
2023-04-04T07:52:23.293Z,98579.44
2023-04-04T07:54:53.293Z,98570.03
2023-04-04T07:57:22.357Z,98578.47
2023-04-04T07:59:51.333Z,98574.38
2023-04-04T08:02:20.635Z,98583.44
2023-04-04T08:04:49.864Z,98579.34
2023-04-04T08:07:20.397Z,98567.94
2023-04-04T08:09:49.403Z,98575.31
2023-04-04T08:12:18.541Z,98586.09
2023-04-04T08:14:47.599Z,98574.34
2023-04-04T08:17:19.127Z,98576.78
2023-04-04T08:19:48.224Z,98588.00
2023-04-04T08:22:17.217Z,98576.81
2023-04-04T08:24:47.700Z,98574.56
2023-04-04T08:27:17.078Z,98571.38
2023-04-04T08:29:46.958Z,98565.16
2023-04-04T08:32:16.213Z,98554.50
2023-04-04T08:34:45.383Z,98552.28
2023-04-04T08:37:14.773Z,98555.31
2023-04-04T08:39:44.122Z,98549.59
2023-04-04T08:42:17.138Z,98548.22
2023-04-04T08:44:51.183Z,98546.09
2023-04-04T08:47:24.575Z,98535.09
2023-04-04T08:49:56.722Z,98541.97
2023-04-04T08:52:29.620Z,98530.53
2023-04-04T08:55:00.014Z,98541.34
2023-04-04T08:57:30.868Z,98526.09
2023-04-04T09:00:00.418Z,98522.50
2023-04-04T09:02:35.553Z,98532.50
2023-04-04T09:05:07.266Z,98518.59
2023-04-04T09:07:39.195Z,98526.09
2023-04-04T09:10:12.187Z,98527.47
2023-04-04T09:12:47.559Z,98525.63
2023-04-04T09:15:17.379Z,98530.94
2023-04-04T09:17:46.504Z,98519.44
2023-04-04T09:20:39.056Z,98517.41
2023-04-04T09:23:11.023Z,98517.47
2023-04-04T09:25:56.308Z,98507.91
2023-04-04T09:28:34.854Z,98516.53
2023-04-04T09:31:07.862Z,98515.03
2023-04-04T09:33:37.193Z,98510.63
2023-04-04T09:36:11.231Z,98494.97
2023-04-04T09:38:43.207Z,98495.22
2023-04-04T09:41:14.992Z,98493.78
2023-04-04T09:43:47.859Z,98499.09
2023-04-04T09:46:21.844Z,98496.19
2023-04-04T09:48:52.023Z,98488.34
2023-04-04T09:51:21.059Z,98491.53
2023-04-04T09:53:50.664Z,98486.25
2023-04-04T09:56:21.139Z,98498.44
2023-04-04T09:59:02.997Z,98489.63
2023-04-04T10:01:34.616Z,98479.50
2023-04-04T10:04:06.167Z,98481.19
2023-04-04T10:06:38.555Z,98480.38
2023-04-04T10:09:09.502Z,98473.19
2023-04-04T10:11:38.947Z,98474.75
2023-04-04T10:14:10.970Z,98485.97
2023-04-04T10:16:46.735Z,98471.97
2023-04-04T10:19:19.421Z,98472.38
2023-04-04T10:21:49.474Z,98469.94
2023-04-04T10:24:19.124Z,98466.38
2023-04-04T10:26:48.159Z,98463.59
2023-04-04T10:29:18.668Z,98468.41
2023-04-04T10:31:51.187Z,98448.38
2023-04-04T10:34:30.110Z,98454.78
2023-04-04T10:37:10.711Z,98446.69
2023-04-04T10:39:51.389Z,98434.69
2023-04-04T10:42:21.006Z,98427.41
2023-04-04T10:44:52.650Z,98416.25
2023-04-04T10:47:23.943Z,98425.69
2023-04-04T10:49:53.989Z,98426.09
2023-04-04T10:52:25.688Z,98419.19
2023-04-04T10:54:58.859Z,98404.72
2023-04-04T10:57:29.454Z,98417.00
2023-04-04T11:00:05.147Z,98409.16
2023-04-04T11:02:57.271Z,98408.03
2023-04-04T11:05:31.840Z,98405.75
2023-04-04T11:08:08.678Z,98402.75
2023-04-04T11:10:39.845Z,98388.47
2023-04-04T11:13:14.330Z,98406.28
2023-04-04T11:15:55.851Z,98388.28
2023-04-04T11:18:47.183Z,98410.44
2023-04-04T11:21:18.787Z,98399.84
2023-04-04T11:24:17.060Z,98393.06
2023-04-04T11:26:47.288Z,98378.47
2023-04-04T11:29:43.239Z,98374.00
2023-04-04T11:32:52.961Z,98370.78
2023-04-04T11:35:25.558Z,98367.72
2023-04-04T11:38:02.495Z,98359.78
2023-04-04T11:40:41.408Z,98361.59
2023-04-04T11:43:12.541Z,98363.34
2023-04-04T11:45:48.084Z,98365.41
2023-04-04T11:48:21.082Z,98371.66
2023-04-04T11:50:53.445Z,98353.63
2023-04-04T11:53:22.942Z,98353.34
2023-04-04T11:55:53.069Z,98358.00
2023-04-04T11:58:24.231Z,98359.53
2023-04-04T12:00:53.367Z,98349.41
2023-04-04T12:05:53.237Z,98358.91
2023-04-04T12:08:24.042Z,98356.78
2023-04-04T12:10:53.259Z,98353.59
2023-04-04T12:13:22.289Z,98348.00
2023-04-04T12:15:51.593Z,98343.38
2023-04-04T12:18:26.354Z,98346.69
2023-04-04T12:20:57.725Z,98340.16
2023-04-04T12:23:27.751Z,98341.63
2023-04-04T12:25:58.686Z,98336.69
2023-04-04T12:28:28.442Z,98328.00
2023-04-04T12:30:57.934Z,98325.34
2023-04-04T12:33:28.434Z,98329.94
2023-04-04T12:35:57.524Z,98337.16
2023-04-04T12:38:26.878Z,98325.75
2023-04-04T12:40:55.940Z,98334.72
2023-04-04T12:43:29.925Z,98337.31
2023-04-04T12:45:59.523Z,98330.13
2023-04-04T12:48:31.799Z,98332.59
2023-04-04T12:51:01.807Z,98346.50
2023-04-04T12:53:33.161Z,98337.72
2023-04-04T12:56:04.696Z,98337.81
2023-04-04T12:58:36.212Z,98330.94
2023-04-04T13:01:07.111Z,98332.88
2023-04-04T13:03:38.041Z,98328.91
2023-04-04T13:06:14.323Z,98328.66
2023-04-04T13:08:54.140Z,98334.41
2023-04-04T13:11:23.561Z,98326.66
2023-04-04T13:14:02.725Z,98318.56
2023-04-04T13:16:34.415Z,98313.63
2023-04-04T13:19:06.198Z,98313.50
2023-04-04T13:21:36.679Z,98323.59
2023-04-04T13:24:06.328Z,98331.66
2023-04-04T13:26:36.041Z,98332.53
2023-04-04T13:29:05.034Z,98333.56
2023-04-04T13:31:34.065Z,98312.41
2023-04-04T13:34:04.457Z,98326.56
2023-04-04T13:36:34.678Z,98315.13
2023-04-04T13:39:03.722Z,98316.84
2023-04-04T13:41:32.739Z,98318.94
2023-04-04T13:44:03.952Z,98328.13
2023-04-04T13:46:33.006Z,98323.31
2023-04-04T13:49:03.679Z,98309.16
2023-04-04T13:51:34.131Z,98334.94
2023-04-04T13:54:03.206Z,98328.84
2023-04-04T13:56:32.264Z,98330.41
2023-04-04T13:59:01.372Z,98325.41
2023-04-04T14:01:30.759Z,98316.56
2023-04-04T14:04:01.942Z,98328.34
2023-04-04T14:06:35.827Z,98331.22
2023-04-04T14:09:04.973Z,98328.13
2023-04-04T14:11:35.686Z,98330.19
2023-04-04T14:14:04.661Z,98331.25
2023-04-04T14:16:33.816Z,98330.88
2023-04-04T14:19:02.950Z,98333.38
2023-04-04T14:21:33.612Z,98334.47
2023-04-04T14:24:02.768Z,98327.34
2023-04-04T14:26:33.308Z,98321.47
2023-04-04T14:29:03.420Z,98326.53
2023-04-04T14:31:34.909Z,98323.66
2023-04-04T14:34:05.323Z,98329.84
2023-04-04T14:36:36.571Z,98326.00
2023-04-04T14:39:05.821Z,98324.69
2023-04-04T14:41:34.908Z,98328.97
2023-04-04T14:44:03.955Z,98335.38
2023-04-04T14:46:34.076Z,98337.13
2023-04-04T14:49:06.337Z,98324.78
2023-04-04T14:51:36.860Z,98331.34
2023-04-04T14:54:06.130Z,98326.44
2023-04-04T14:56:35.215Z,98332.28
2023-04-04T14:59:05.749Z,98340.75
2023-04-04T15:01:34.832Z,98338.91
2023-04-04T15:04:03.980Z,98332.91
2023-04-04T15:06:36.224Z,98331.66
2023-04-04T15:09:08.094Z,98350.38
2023-04-04T15:11:37.250Z,98344.19
2023-04-04T15:14:06.825Z,98337.59
2023-04-04T15:16:36.165Z,98342.00
2023-04-04T15:19:05.361Z,98354.06
2023-04-04T15:21:34.422Z,98331.25
2023-04-04T15:24:03.457Z,98348.22
2023-04-04T15:26:34.002Z,98336.59
2023-04-04T15:29:02.985Z,98343.44
2023-04-04T15:31:32.721Z,98357.44
2023-04-04T15:34:01.923Z,98357.03
2023-04-04T15:36:31.417Z,98351.00
2023-04-04T15:39:01.069Z,98352.00
2023-04-04T15:41:30.296Z,98359.31
2023-04-04T15:44:00.714Z,98349.00
2023-04-04T15:46:29.794Z,98368.09
2023-04-04T15:48:58.888Z,98353.59
2023-04-04T15:51:28.944Z,98353.78
2023-04-04T15:53:58.319Z,98355.09
2023-04-04T15:56:27.701Z,98352.53
2023-04-04T15:58:57.043Z,98363.44
2023-04-04T16:01:30.473Z,98368.28
2023-04-04T16:03:59.689Z,98366.91
2023-04-04T16:06:30.132Z,98362.97
2023-04-04T16:08:59.471Z,98368.47
2023-04-04T16:11:28.589Z,98368.34
2023-04-04T16:13:57.608Z,98367.56
2023-04-04T16:16:26.794Z,98372.25
2023-04-04T16:18:57.453Z,98375.53
2023-04-04T16:21:26.561Z,98381.53
2023-04-04T16:23:55.998Z,98370.41
2023-04-04T16:26:25.093Z,98374.03
2023-04-04T16:28:54.516Z,98385.97
2023-04-04T16:31:24.901Z,98384.38
2023-04-04T16:33:54.044Z,98386.78
2023-04-04T16:36:24.488Z,98389.19
2023-04-04T16:38:54.858Z,98389.72
2023-04-04T16:41:23.943Z,98391.56
2023-04-04T16:43:54.749Z,98392.91
2023-04-04T16:46:23.831Z,98389.31
2023-04-04T16:48:52.901Z,98390.34
2023-04-04T16:51:22.037Z,98401.09
2023-04-04T16:53:52.491Z,98401.84
2023-04-04T16:56:22.434Z,98403.31
2023-04-04T16:58:55.598Z,98393.06
2023-04-04T17:01:26.755Z,98395.84
2023-04-04T17:03:55.960Z,98393.09
2023-04-04T17:06:27.403Z,98396.03
2023-04-04T17:08:57.949Z,98392.69
2023-04-04T17:11:27.210Z,98388.34
2023-04-04T17:13:56.208Z,98394.72
2023-04-04T17:16:26.429Z,98391.91
2023-04-04T17:18:55.518Z,98399.00
2023-04-04T17:21:25.106Z,98398.03
2023-04-04T17:23:54.202Z,98395.56
2023-04-04T17:26:24.601Z,98400.47
2023-04-04T17:28:53.676Z,98399.63
2023-04-04T17:31:23.014Z,98405.06
2023-04-04T17:33:52.200Z,98404.03
2023-04-04T17:36:21.599Z,98400.34
2023-04-04T17:38:50.857Z,98408.53
2023-04-04T17:41:19.938Z,98401.31
2023-04-04T17:43:51.627Z,98416.84
2023-04-04T17:46:20.781Z,98413.91
2023-04-04T17:48:49.797Z,98419.63
2023-04-04T17:51:19.620Z,98425.09
2023-04-04T17:53:48.985Z,98424.09
2023-04-04T17:56:18.014Z,98428.06
2023-04-04T17:58:47.183Z,98437.41
2023-04-04T18:01:17.854Z,98440.38
2023-04-04T18:03:47.767Z,98437.81
2023-04-04T18:06:17.161Z,98444.66
2023-04-04T18:08:46.150Z,98450.81
2023-04-04T18:11:15.313Z,98453.16
2023-04-04T18:13:45.359Z,98450.56
2023-04-04T18:16:14.542Z,98461.50
2023-04-04T18:18:46.108Z,98460.19
2023-04-04T18:21:15.186Z,98466.19
2023-04-04T18:23:44.881Z,98470.72
2023-04-04T18:26:15.045Z,98460.91
2023-04-04T18:28:44.247Z,98478.38
2023-04-04T18:31:14.543Z,98481.94
2023-04-04T18:33:45.138Z,98482.50
2023-04-04T18:36:14.254Z,98482.34
2023-04-04T18:38:43.659Z,98487.25
2023-04-04T18:41:12.710Z,98488.44
2023-04-04T18:43:41.908Z,98498.38
2023-04-04T18:46:11.099Z,98498.03
2023-04-04T18:48:40.086Z,98499.47
2023-04-04T18:51:11.747Z,98499.63
2023-04-04T18:53:42.365Z,98511.63
2023-04-04T18:56:11.830Z,98510.03
2023-04-04T18:58:41.920Z,98512.94
2023-04-04T19:01:13.014Z,98515.84
2023-04-04T19:03:47.513Z,98519.16
2023-04-04T19:06:20.372Z,98526.16
2023-04-04T19:08:53.556Z,98526.09
2023-04-04T19:11:24.038Z,98526.72
2023-04-04T19:13:53.656Z,98530.94
2023-04-04T19:16:24.302Z,98537.03
2023-04-04T19:18:54.712Z,98534.84
2023-04-04T19:21:26.440Z,98543.03
2023-04-04T19:23:55.982Z,98535.00
2023-04-04T19:26:25.100Z,98544.06
2023-04-04T19:28:54.584Z,98552.66
2023-04-04T19:31:30.065Z,98546.84
2023-04-04T19:33:59.660Z,98546.75
2023-04-04T19:36:32.010Z,98548.81
2023-04-04T19:39:01.031Z,98551.03
2023-04-04T19:41:36.579Z,98552.38
2023-04-04T19:44:08.841Z,98553.28
2023-04-04T19:46:38.000Z,98552.31
2023-04-04T19:49:12.058Z,98561.03
2023-04-04T19:51:52.542Z,98561.59
2023-04-04T19:54:27.607Z,98560.63
2023-04-04T19:57:01.801Z,98568.47
2023-04-04T20:00:13.497Z,98557.94
2023-04-04T20:02:54.704Z,98558.66
2023-04-04T20:05:59.001Z,98568.44
2023-04-04T20:08:41.041Z,98570.97
2023-04-04T20:11:10.129Z,98572.31
2023-04-04T20:13:40.137Z,98575.25
2023-04-04T20:16:14.795Z,98578.97
2023-04-04T20:18:45.671Z,98577.44
2023-04-04T20:21:17.363Z,98584.38
2023-04-04T20:23:52.623Z,98586.53
2023-04-04T20:26:42.649Z,98585.09
2023-04-04T20:29:13.967Z,98586.63
2023-04-04T20:31:46.228Z,98587.97
2023-04-04T20:34:42.132Z,98585.81
2023-04-04T20:37:19.961Z,98582.63
2023-04-04T20:39:54.710Z,98594.25
2023-04-04T20:42:41.788Z,98598.72
2023-04-04T20:45:44.943Z,98590.31
2023-04-04T20:48:40.958Z,98594.59
2023-04-04T20:51:27.204Z,98596.28
2023-04-04T20:53:59.181Z,98602.41
2023-04-04T20:56:52.500Z,98605.88
2023-04-04T20:59:36.886Z,98595.31
2023-04-04T21:02:12.556Z,98608.75
2023-04-04T21:04:42.475Z,98599.97
2023-04-04T21:07:42.615Z,98596.09
2023-04-04T21:10:26.531Z,98602.91
2023-04-04T21:12:58.993Z,98599.34
2023-04-04T21:15:30.336Z,98604.63
2023-04-04T21:18:08.999Z,98616.44
2023-04-04T21:21:12.114Z,98614.34
2023-04-04T21:23:47.255Z,98609.53
2023-04-04T21:26:34.152Z,98612.97
2023-04-04T21:29:07.240Z,98614.22
2023-04-04T21:31:39.075Z,98620.16
2023-04-04T21:34:14.761Z,98619.16
2023-04-04T21:36:44.521Z,98610.13
2023-04-04T21:39:15.948Z,98611.81
2023-04-04T21:41:46.033Z,98614.13
2023-04-04T21:44:16.503Z,98616.16
2023-04-04T21:46:45.749Z,98616.84
2023-04-04T21:49:14.882Z,98622.66
2023-04-04T21:51:44.165Z,98616.34
2023-04-04T21:54:14.386Z,98614.59
2023-04-04T21:56:43.506Z,98610.47
2023-04-04T21:59:12.785Z,98620.16
2023-04-04T22:01:43.381Z,98607.94
2023-04-04T22:04:12.608Z,98611.41
2023-04-04T22:06:42.769Z,98607.72
2023-04-04T22:09:11.882Z,98604.81
2023-04-04T22:11:45.510Z,98613.47
2023-04-04T22:14:17.449Z,98618.75
2023-04-04T22:16:48.481Z,98608.59
2023-04-04T22:19:17.854Z,98617.81
2023-04-04T22:21:48.686Z,98615.06
2023-04-04T22:24:19.212Z,98624.38
2023-04-04T22:26:50.622Z,98625.63
2023-04-04T22:29:22.912Z,98626.53
2023-04-04T22:31:53.344Z,98626.78
2023-04-04T22:34:22.596Z,98626.31
2023-04-04T22:36:54.849Z,98627.41
2023-04-04T22:39:24.125Z,98621.19
2023-04-04T22:41:53.156Z,98633.47
2023-04-04T22:44:22.401Z,98634.31
2023-04-04T22:46:52.906Z,98629.22
2023-04-04T22:49:22.339Z,98627.66
2023-04-04T22:51:55.531Z,98625.00
2023-04-04T22:54:24.814Z,98625.94
2023-04-04T22:56:54.138Z,98631.19
2023-04-04T22:59:23.181Z,98624.59
2023-04-04T23:01:53.808Z,98619.53
2023-04-04T23:04:22.958Z,98625.50
2023-04-04T23:06:52.111Z,98624.94
2023-04-04T23:09:21.506Z,98620.91
2023-04-04T23:11:50.494Z,98627.16
2023-04-04T23:14:19.664Z,98623.59
2023-04-04T23:16:49.110Z,98629.16
2023-04-04T23:19:19.949Z,98627.09
2023-04-04T23:21:49.045Z,98625.22
2023-04-04T23:24:18.254Z,98619.53
2023-04-04T23:26:47.311Z,98625.88
2023-04-04T23:29:16.423Z,98632.06
2023-04-04T23:31:45.575Z,98632.47
2023-04-04T23:34:14.644Z,98634.34
2023-04-04T23:36:45.085Z,98631.53
2023-04-04T23:39:14.878Z,98633.50
2023-04-04T23:41:43.945Z,98624.19
2023-04-04T23:44:13.211Z,98624.59
2023-04-04T23:46:42.571Z,98625.91
2023-04-04T23:49:12.736Z,98625.91
2023-04-04T23:51:42.360Z,98621.25
2023-04-04T23:54:14.278Z,98615.44
2023-04-04T23:56:43.308Z,98621.00
2023-04-04T23:59:12.378Z,98614.41
